Time;durP1;ratioP1;P1;durP2;ratioP2;P2;SDS_P1;SDS_P2;PMS_P1;PMS_P2;Temp;Humidity;BMP_temperature;BMP_pressure;BME280_temperature;BME280_humidity;BME280_pressure;Samples;Min_cycle;Max_cycle;Signal;HPM_P1;HPM_P2
2021/10/10 00:01:55;;;;;;;17.20;11.60;;;10.80;69.90;;;;;;5045251;28;20030;-78
2021/10/10 00:04:21;;;;;;;19.43;11.90;;;10.80;70.10;;;;;;5052941;28;20045;-78
2021/10/10 00:06:46;;;;;;;16.60;12.43;;;10.70;70.10;;;;;;5047579;28;20028;-78
2021/10/10 00:09:12;;;;;;;19.07;12.30;;;10.70;70.30;;;;;;5047024;28;20041;-78
2021/10/10 00:11:38;;;;;;;17.17;14.67;;;10.70;70.30;;;;;;5050281;28;20079;-78
2021/10/10 00:14:04;;;;;;;21.60;14.47;;;10.80;70.30;;;;;;5036516;28;20021;-78
2021/10/10 00:16:30;;;;;;;23.20;13.83;;;10.80;70.20;;;;;;5045599;28;20021;-78
2021/10/10 00:18:57;;;;;;;25.97;12.80;;;10.80;70.20;;;;;;5041312;28;20090;-78
2021/10/10 00:21:23;;;;;;;18.10;11.30;;;10.80;70.10;;;;;;5043887;28;20047;-78
2021/10/10 00:23:48;;;;;;;17.80;12.37;;;10.90;69.90;;;;;;5045167;28;20032;-77
2021/10/10 00:26:14;;;;;;;16.27;11.77;;;10.80;69.70;;;;;;5047773;28;20052;-78
2021/10/10 00:28:40;;;;;;;18.47;12.10;;;10.70;70.10;;;;;;5045981;28;20049;-78
2021/10/10 00:31:05;;;;;;;17.63;11.33;;;10.70;70.10;;;;;;5043533;28;20083;-78
2021/10/10 00:33:31;;;;;;;18.17;12.00;;;10.80;70.00;;;;;;5050111;28;20678;-78
2021/10/10 00:35:57;;;;;;;16.30;11.53;;;10.80;70.00;;;;;;5042809;28;20033;-78
2021/10/10 00:38:22;;;;;;;15.73;10.37;;;10.80;69.90;;;;;;5047087;28;20041;-78
2021/10/10 00:40:48;;;;;;;21.47;11.97;;;10.70;69.80;;;;;;5050098;28;20036;-78
2021/10/10 00:43:14;;;;;;;21.07;11.07;;;10.70;69.90;;;;;;5045076;28;20538;-79
2021/10/10 00:45:47;;;;;;;16.80;11.70;;;10.60;69.80;;;;;;5044938;28;22230;-78
2021/10/10 00:48:13;;;;;;;17.83;12.57;;;10.50;70.10;;;;;;5043586;28;20029;-78
2021/10/10 00:50:38;;;;;;;22.17;11.83;;;10.50;70.30;;;;;;5060516;28;20567;-78
2021/10/10 00:53:05;;;;;;;19.10;12.63;;;10.50;70.60;;;;;;5044530;28;20033;-78
2021/10/10 00:55:34;;;;;;;21.63;13.20;;;10.50;70.80;;;;;;5047578;28;20506;-78
2021/10/10 00:58:01;;;;;;;18.90;12.10;;;10.50;71.00;;;;;;5047068;28;20029;-78
2021/10/10 01:00:28;;;;;;;17.23;12.20;;;10.50;71.20;;;;;;5046496;28;20031;-78
2021/10/10 01:02:58;;;;;;;19.40;12.63;;;10.50;71.50;;;;;;5045442;28;20029;-78
2021/10/10 01:05:25;;;;;;;18.30;11.27;;;10.50;71.70;;;;;;5039881;28;20423;-78
2021/10/10 01:07:52;;;;;;;16.10;10.97;;;10.60;71.70;;;;;;5046194;28;20037;-79
2021/10/10 01:10:19;;;;;;;19.03;10.90;;;10.60;71.50;;;;;;5043727;28;20479;-78
2021/10/10 01:12:45;;;;;;;15.63;9.90;;;10.60;71.30;;;;;;5040157;28;20112;-78
2021/10/10 01:15:12;;;;;;;11.33;8.83;;;10.60;71.00;;;;;;5045772;28;20446;-78
2021/10/10 01:17:39;;;;;;;13.20;9.27;;;10.60;70.70;;;;;;5044589;28;20025;-78
2021/10/10 01:20:07;;;;;;;14.83;8.93;;;10.60;70.10;;;;;;5046609;28;20119;-78
2021/10/10 01:22:32;;;;;;;14.93;9.17;;;10.50;70.20;;;;;;5052783;28;20021;-78
2021/10/10 01:24:58;;;;;;;14.83;9.67;;;10.50;69.90;;;;;;5050324;28;20443;-78
2021/10/10 01:27:24;;;;;;;15.43;9.97;;;10.40;69.70;;;;;;5049358;28;20041;-78
2021/10/10 01:29:50;;;;;;;14.27;10.13;;;10.30;69.90;;;;;;5047479;28;20036;-78
2021/10/10 01:32:16;;;;;;;17.93;10.47;;;10.20;70.10;;;;;;5045319;28;20033;-78
2021/10/10 01:34:46;;;;;;;13.97;10.03;;;10.20;70.40;;;;;;5049510;28;20020;-78
2021/10/10 01:37:13;;;;;;;16.73;11.23;;;10.20;70.60;;;;;;5049017;28;20108;-78
2021/10/10 01:39:39;;;;;;;14.50;10.77;;;10.20;70.60;;;;;;5056698;28;20027;-78
2021/10/10 01:42:05;;;;;;;19.70;11.67;;;10.20;70.70;;;;;;5047465;28;20033;-78
2021/10/10 01:44:30;;;;;;;19.97;11.43;;;10.10;70.90;;;;;;5046084;28;20029;-78
2021/10/10 01:46:57;;;;;;;13.30;9.77;;;10.10;71.10;;;;;;5046052;28;20021;-78
2021/10/10 01:49:23;;;;;;;16.40;11.30;;;10.10;71.20;;;;;;5047843;28;20025;-78
2021/10/10 01:51:49;;;;;;;14.57;9.60;;;10.00;71.20;;;;;;5049983;28;20514;-78
2021/10/10 01:54:15;;;;;;;14.00;10.60;;;10.00;71.30;;;;;;5048522;28;20044;-78
2021/10/10 01:56:41;;;;;;;16.17;10.10;;;10.00;71.20;;;;;;5048001;28;20029;-77
2021/10/10 01:59:07;;;;;;;10.33;8.30;;;10.00;71.20;;;;;;5044773;28;22134;-78
2021/10/10 02:01:33;;;;;;;12.90;9.53;;;10.00;71.00;;;;;;5051501;28;20112;-78
2021/10/10 02:03:59;;;;;;;11.80;8.00;;;10.00;70.90;;;;;;5051575;28;20036;-78
2021/10/10 02:06:25;;;;;;;12.23;8.57;;;10.00;70.70;;;;;;5047263;28;20357;-78
2021/10/10 02:08:51;;;;;;;15.87;9.63;;;10.00;70.90;;;;;;5047202;28;20048;-78
2021/10/10 02:11:16;;;;;;;12.47;8.93;;;10.00;70.80;;;;;;5056388;28;20060;-78
2021/10/10 02:13:42;;;;;;;16.47;9.57;;;9.90;70.80;;;;;;5045478;28;20100;-78
2021/10/10 02:16:08;;;;;;;14.10;8.83;;;9.80;71.10;;;;;;5044251;28;20078;-78
2021/10/10 02:18:33;;;;;;;13.37;9.07;;;9.90;71.20;;;;;;5037469;28;20419;-78
2021/10/10 02:20:59;;;;;;;11.90;9.20;;;9.90;71.00;;;;;;5042405;28;20446;-78
2021/10/10 02:23:25;;;;;;;13.13;8.90;;;9.90;70.70;;;;;;5056781;28;20031;-78
2021/10/10 02:25:51;;;;;;;12.47;8.53;;;10.00;70.60;;;;;;5048317;28;20566;-78
2021/10/10 02:28:17;;;;;;;14.93;8.73;;;9.90;70.50;;;;;;5047899;28;20107;-78
2021/10/10 02:30:42;;;;;;;13.37;9.60;;;9.90;70.30;;;;;;5042997;28;20063;-78
2021/10/10 02:33:08;;;;;;;12.13;9.30;;;9.90;70.00;;;;;;5048658;28;20032;-78
2021/10/10 02:35:34;;;;;;;11.67;8.47;;;9.80;70.20;;;;;;5046350;28;20025;-78
2021/10/10 02:37:59;;;;;;;15.67;9.10;;;9.70;70.30;;;;;;5049931;28;20044;-78
2021/10/10 02:40:25;;;;;;;14.80;9.60;;;9.60;70.50;;;;;;5049558;28;20051;-78
2021/10/10 02:42:51;;;;;;;13.50;8.87;;;9.50;71.00;;;;;;5055127;28;20037;-77
2021/10/10 02:45:16;;;;;;;17.23;9.70;;;9.50;70.90;;;;;;5053230;28;20455;-78
2021/10/10 02:47:42;;;;;;;11.63;9.47;;;9.50;70.90;;;;;;5051283;28;20040;-78
2021/10/10 02:50:08;;;;;;;12.60;8.80;;;9.40;71.10;;;;;;5046238;28;20035;-78
2021/10/10 02:52:34;;;;;;;13.30;9.27;;;9.50;71.10;;;;;;5054824;28;20039;-78
2021/10/10 02:55:00;;;;;;;13.10;9.13;;;9.50;70.90;;;;;;5049573;28;20033;-78
2021/10/10 02:57:26;;;;;;;15.60;9.90;;;9.50;70.90;;;;;;5053730;28;20139;-78
2021/10/10 02:59:51;;;;;;;14.37;9.80;;;9.50;71.10;;;;;;5041965;28;20087;-78
2021/10/10 03:02:17;;;;;;;17.67;10.40;;;9.60;71.40;;;;;;5046828;28;20033;-78
2021/10/10 03:04:43;;;;;;;13.47;9.50;;;9.60;71.40;;;;;;5042578;28;20040;-78
2021/10/10 03:07:08;;;;;;;15.50;10.00;;;9.60;71.60;;;;;;5044093;28;22030;-77
2021/10/10 03:09:34;;;;;;;16.47;10.10;;;9.60;71.80;;;;;;5039276;28;20083;-78
2021/10/10 03:12:00;;;;;;;16.10;10.00;;;9.60;71.90;;;;;;5042923;28;20030;-78
2021/10/10 03:14:26;;;;;;;16.73;9.47;;;9.60;72.00;;;;;;5048677;28;20092;-78
2021/10/10 03:16:51;;;;;;;14.30;9.37;;;9.70;72.10;;;;;;5050402;28;20025;-78
2021/10/10 03:19:17;;;;;;;19.63;8.90;;;9.70;72.00;;;;;;5049581;28;20492;-78
2021/10/10 03:21:43;;;;;;;13.53;9.33;;;9.80;71.90;;;;;;5043057;28;20423;-77
2021/10/10 03:24:09;;;;;;;13.70;9.50;;;9.80;71.70;;;;;;5050496;28;20667;-78
2021/10/10 03:26:34;;;;;;;13.53;9.23;;;9.80;71.40;;;;;;5041983;28;20123;-78
2021/10/10 03:29:00;;;;;;;13.17;9.57;;;9.90;71.20;;;;;;5053985;28;20141;-78
2021/10/10 03:31:26;;;;;;;11.83;8.67;;;9.90;71.10;;;;;;5061121;28;20029;-78
2021/10/10 03:33:52;;;;;;;13.10;8.87;;;9.90;70.70;;;;;;5049675;28;20108;-78
2021/10/10 03:36:17;;;;;;;15.07;8.90;;;9.90;70.70;;;;;;5050845;28;20506;-78
2021/10/10 03:38:43;;;;;;;15.13;7.97;;;9.90;70.60;;;;;;5050923;28;20042;-77
2021/10/10 03:41:09;;;;;;;13.00;9.63;;;10.00;70.40;;;;;;5061707;28;20407;-78
2021/10/10 03:43:34;;;;;;;12.23;8.23;;;10.00;70.30;;;;;;5052890;28;20040;-78
2021/10/10 03:46:00;;;;;;;13.20;7.67;;;10.00;70.10;;;;;;5061151;28;20050;-78
2021/10/10 03:48:26;;;;;;;12.63;8.23;;;10.00;69.90;;;;;;5048356;28;20020;-78
2021/10/10 03:50:52;;;;;;;10.70;7.97;;;10.00;69.80;;;;;;5055867;28;20107;-78
2021/10/10 03:53:21;;;;;;;14.23;8.20;;;10.00;69.70;;;;;;5061020;28;20025;-78
2021/10/10 03:55:50;;;;;;;12.23;8.40;;;10.00;69.60;;;;;;5048480;28;20024;-78
2021/10/10 03:58:16;;;;;;;12.50;8.00;;;10.00;69.60;;;;;;5050866;28;20490;-78
2021/10/10 04:00:42;;;;;;;11.47;8.10;;;10.00;69.40;;;;;;5056353;28;20108;-78
2021/10/10 04:03:10;;;;;;;9.83;7.30;;;10.00;69.30;;;;;;5049171;28;20029;-78
2021/10/10 04:08:02;;;;;;;11.27;7.80;;;10.00;68.90;;;;;;5048026;28;21350;-78
2021/10/10 04:10:28;;;;;;;13.13;8.17;;;9.90;69.00;;;;;;5050164;28;20033;-78
2021/10/10 04:12:55;;;;;;;10.93;7.83;;;10.00;69.00;;;;;;5064571;28;20527;-78
2021/10/10 04:15:20;;;;;;;16.40;10.50;;;9.90;68.80;;;;;;5052408;28;20035;-78
2021/10/10 04:17:47;;;;;;;12.90;8.87;;;9.90;68.90;;;;;;5050966;28;20108;-78
2021/10/10 04:20:15;;;;;;;12.37;8.47;;;9.80;68.70;;;;;;5051968;28;20573;-78
2021/10/10 04:22:42;;;;;;;24.40;14.40;;;9.80;68.80;;;;;;5063988;28;20136;-78
2021/10/10 04:25:08;;;;;;;73.90;33.17;;;9.90;68.90;;;;;;5064122;28;20040;-78
2021/10/10 04:27:35;;;;;;;17.87;9.97;;;9.90;68.90;;;;;;5045689;28;20043;-78
2021/10/10 04:30:03;;;;;;;15.67;9.03;;;9.80;68.70;;;;;;5045814;28;20060;-78
2021/10/10 04:32:29;;;;;;;14.57;8.77;;;9.80;69.00;;;;;;5044955;28;20043;-78
2021/10/10 04:34:54;;;;;;;12.53;8.97;;;9.80;69.20;;;;;;5062654;28;20036;-78
2021/10/10 04:37:20;;;;;;;13.80;9.60;;;9.70;69.10;;;;;;5052571;28;20111;-78
2021/10/10 04:39:46;;;;;;;14.83;8.93;;;9.70;69.20;;;;;;5050771;28;20426;-78
2021/10/10 04:42:12;;;;;;;15.20;9.43;;;9.70;69.20;;;;;;5042177;28;20036;-78
2021/10/10 04:44:38;;;;;;;18.80;11.67;;;9.70;69.50;;;;;;5046153;28;20079;-78
2021/10/10 04:47:05;;;;;;;12.37;8.30;;;9.70;69.30;;;;;;5058971;28;20095;-78
2021/10/10 04:49:32;;;;;;;15.37;9.10;;;9.70;69.40;;;;;;5052569;28;20032;-78
2021/10/10 04:51:58;;;;;;;13.03;9.17;;;9.60;69.50;;;;;;5051949;28;20024;-78
2021/10/10 04:54:23;;;;;;;15.67;10.57;;;9.70;69.60;;;;;;5051166;28;20075;-78
2021/10/10 04:56:49;;;;;;;21.23;12.73;;;9.70;69.50;;;;;;5050620;28;20028;-78
2021/10/10 04:59:15;;;;;;;13.10;9.60;;;9.80;69.50;;;;;;5044691;28;20052;-77
2021/10/10 05:01:40;;;;;;;13.30;9.40;;;9.80;69.30;;;;;;5049594;28;20029;-78
2021/10/10 05:04:06;;;;;;;15.43;8.97;;;9.80;69.40;;;;;;5052093;28;21433;-78
2021/10/10 05:06:32;;;;;;;15.23;8.77;;;9.70;69.40;;;;;;5046677;28;20029;-78
2021/10/10 05:08:57;;;;;;;15.53;9.33;;;9.80;69.30;;;;;;5050251;28;20408;-78
2021/10/10 05:11:23;;;;;;;16.70;9.57;;;9.70;69.50;;;;;;5063500;28;20020;-78
2021/10/10 05:13:49;;;;;;;12.90;9.20;;;9.70;69.70;;;;;;5060721;28;20052;-77
2021/10/10 05:16:14;;;;;;;16.57;9.63;;;9.70;69.80;;;;;;5046150;28;20125;-78
2021/10/10 05:18:40;;;;;;;13.80;9.87;;;9.70;69.80;;;;;;5050373;28;20029;-78
2021/10/10 05:21:06;;;;;;;13.40;8.53;;;9.70;69.90;;;;;;5048737;28;20041;-78
2021/10/10 05:23:31;;;;;;;13.97;8.93;;;9.70;70.10;;;;;;5050315;28;20025;-78
2021/10/10 05:25:58;;;;;;;16.93;9.93;;;9.70;70.30;;;;;;5047566;28;20750;-78
2021/10/10 05:28:24;;;;;;;15.00;9.37;;;9.80;70.40;;;;;;5048384;28;20064;-77
2021/10/10 05:30:51;;;;;;;16.90;10.37;;;9.70;70.50;;;;;;5048681;28;20418;-78
2021/10/10 05:33:19;;;;;;;14.47;9.17;;;9.80;70.50;;;;;;5049467;28;20017;-78
2021/10/10 05:35:45;;;;;;;14.20;9.23;;;9.80;70.40;;;;;;5047428;28;20052;-78
2021/10/10 05:38:11;;;;;;;14.60;9.20;;;9.80;70.30;;;;;;5048956;28;20044;-78
2021/10/10 05:40:37;;;;;;;18.30;9.73;;;9.80;70.60;;;;;;5051830;28;20055;-78
2021/10/10 05:43:03;;;;;;;11.77;8.50;;;9.80;70.70;;;;;;5062350;28;20025;-78
2021/10/10 05:45:29;;;;;;;13.73;9.40;;;9.80;70.70;;;;;;5053976;28;20060;-78
2021/10/10 05:47:55;;;;;;;12.10;9.30;;;9.80;70.80;;;;;;5051246;28;20029;-78
2021/10/10 05:50:20;;;;;;;12.37;9.23;;;9.80;71.00;;;;;;5055411;28;20046;-78
2021/10/10 05:52:46;;;;;;;12.07;9.67;;;9.80;71.10;;;;;;5054283;28;20036;-78
2021/10/10 05:55:14;;;;;;;13.87;9.90;;;9.90;71.10;;;;;;5051746;28;20051;-78
2021/10/10 05:57:47;;;;;;;18.20;10.30;;;9.90;71.00;;;;;;5054949;28;20048;-78
2021/10/10 06:00:17;;;;;;;19.80;10.52;;;9.90;71.00;;;;;;5056907;28;20035;-78
2021/10/10 06:02:44;;;;;;;17.70;11.63;;;10.00;70.90;;;;;;5055430;28;20384;-78
2021/10/10 06:05:11;;;;;;;19.40;12.30;;;10.00;70.90;;;;;;5046563;28;20025;-77
2021/10/10 06:07:37;;;;;;;18.17;12.70;;;9.90;71.00;;;;;;5043722;28;20024;-78
2021/10/10 06:10:04;;;;;;;24.37;12.80;;;9.90;71.10;;;;;;5050292;28;20676;-78
2021/10/10 06:12:30;;;;;;;18.30;12.90;;;9.90;71.10;;;;;;5052079;28;20033;-78
2021/10/10 06:14:58;;;;;;;20.30;11.67;;;10.00;71.20;;;;;;5052204;28;20020;-78
2021/10/10 06:17:24;;;;;;;15.90;9.60;;;10.00;71.10;;;;;;5064130;28;20025;-78
2021/10/10 06:19:49;;;;;;;13.83;8.87;;;10.10;71.00;;;;;;5059083;28;20066;-78
2021/10/10 06:22:15;;;;;;;12.47;8.17;;;10.10;71.10;;;;;;5049595;28;20021;-78
2021/10/10 06:24:41;;;;;;;17.60;8.30;;;10.00;71.10;;;;;;5055422;28;20021;-77
2021/10/10 06:27:06;;;;;;;11.40;8.53;;;10.10;71.10;;;;;;5053673;28;20148;-78
2021/10/10 06:29:32;;;;;;;13.90;9.90;;;10.10;70.90;;;;;;5055222;28;20025;-78
2021/10/10 06:31:58;;;;;;;14.93;9.57;;;10.20;71.10;;;;;;5049437;28;20028;-78
2021/10/10 06:34:23;;;;;;;13.20;10.57;;;10.20;70.90;;;;;;5046787;28;20025;-78
2021/10/10 06:36:49;;;;;;;16.57;11.77;;;10.20;71.40;;;;;;5053998;28;20033;-78
2021/10/10 06:39:16;;;;;;;15.80;11.63;;;10.20;70.80;;;;;;5062103;28;20020;-78
2021/10/10 06:41:44;;;;;;;23.17;12.90;;;10.20;70.80;;;;;;5060118;28;20112;-77
2021/10/10 06:44:10;;;;;;;23.83;12.60;;;10.20;70.90;;;;;;5048445;28;20025;-77
2021/10/10 06:46:36;;;;;;;18.93;11.57;;;10.20;71.00;;;;;;5053991;28;20040;-77
2021/10/10 06:49:01;;;;;;;20.33;12.03;;;10.20;71.10;;;;;;5053093;28;20036;-78
2021/10/10 06:51:28;;;;;;;16.63;11.90;;;10.20;71.10;;;;;;5056321;28;20415;-78
2021/10/10 06:53:54;;;;;;;16.63;10.53;;;10.30;71.10;;;;;;5046460;28;20128;-77
2021/10/10 06:56:19;;;;;;;23.20;13.17;;;10.30;70.90;;;;;;5047110;28;20104;-78
2021/10/10 06:58:45;;;;;;;18.23;12.87;;;10.40;71.00;;;;;;5050299;28;20017;-78
2021/10/10 07:01:15;;;;;;;25.50;20.07;;;10.40;71.00;;;;;;5044637;28;20075;-78
2021/10/10 07:03:41;;;;;;;23.17;16.90;;;10.40;71.10;;;;;;5049639;28;20035;-78
2021/10/10 07:06:07;;;;;;;27.37;17.93;;;10.40;71.30;;;;;;5050738;28;20043;-78
2021/10/10 07:08:32;;;;;;;26.90;18.00;;;10.40;71.60;;;;;;5047946;28;20048;-78
2021/10/10 07:10:58;;;;;;;23.27;16.97;;;10.40;71.80;;;;;;5050858;28;20439;-78
2021/10/10 07:13:24;;;;;;;25.27;17.23;;;10.40;72.10;;;;;;5052397;28;20021;-78
2021/10/10 07:15:50;;;;;;;23.43;15.87;;;10.40;72.40;;;;;;5050197;28;20481;-78
2021/10/10 07:18:24;;;;;;;23.83;15.47;;;10.40;72.20;;;;;;5043850;28;20028;-78
2021/10/10 07:26:24;;;;;;;30.17;18.70;;;10.50;72.10;;;;;;5049038;28;20032;-78
2021/10/10 07:28:51;;;;;;;28.77;18.07;;;10.50;72.00;;;;;;5051020;28;20655;-78
2021/10/10 07:31:17;;;;;;;25.73;18.17;;;10.50;71.90;;;;;;5052374;28;20078;-78
2021/10/10 07:33:43;;;;;;;32.77;20.43;;;10.60;72.10;;;;;;5043143;28;20048;-78
2021/10/10 07:36:11;;;;;;;34.63;22.63;;;10.60;72.20;;;;;;5046037;28;20021;-78
2021/10/10 07:38:37;;;;;;;33.27;22.90;;;10.70;72.10;;;;;;5042342;28;20021;-78
2021/10/10 07:41:03;;;;;;;34.73;23.27;;;10.70;72.10;;;;;;5051250;28;20146;-78
2021/10/10 07:43:30;;;;;;;28.70;20.03;;;10.80;71.80;;;;;;5045927;28;20078;-78
2021/10/10 07:46:05;;;;;;;30.80;21.23;;;10.80;72.00;;;;;;5049120;28;20094;-78
2021/10/10 07:48:33;;;;;;;32.27;19.57;;;10.80;71.80;;;;;;5049147;28;20029;-78
2021/10/10 07:50:58;;;;;;;40.53;24.60;;;10.80;71.60;;;;;;5050108;28;20032;-78
2021/10/10 07:53:24;;;;;;;34.60;22.83;;;10.90;71.70;;;;;;5041299;28;20036;-78
2021/10/10 07:55:50;;;;;;;33.60;23.60;;;11.00;71.60;;;;;;5047380;28;20036;-78
2021/10/10 07:58:15;;;;;;;37.60;23.00;;;11.00;71.30;;;;;;5045946;28;20120;-78
2021/10/10 08:00:41;;;;;;;35.70;23.17;;;11.10;71.00;;;;;;5047108;28;20056;-78
2021/10/10 08:03:07;;;;;;;36.57;23.30;;;11.20;70.80;;;;;;5044761;28;20029;-78
2021/10/10 08:05:41;;;;;;;41.10;24.13;;;11.30;71.10;;;;;;5052612;28;20036;-78
2021/10/10 08:08:07;;;;;;;34.72;24.88;;;11.50;70.40;;;;;;5044364;28;20044;-78
2021/10/10 08:10:32;;;;;;;40.47;25.23;;;12.10;70.50;;;;;;5049850;28;20027;-78
2021/10/10 08:12:58;;;;;;;37.80;24.50;;;12.80;70.00;;;;;;5045156;28;20017;-78
2021/10/10 08:15:24;;;;;;;34.58;22.33;;;13.80;68.40;;;;;;5046895;28;20025;-78
2021/10/10 08:17:50;;;;;;;34.25;22.42;;;15.00;65.20;;;;;;5046065;28;20036;-78
2021/10/10 08:20:15;;;;;;;32.28;23.52;;;16.60;59.00;;;;;;5046228;28;20033;-79
2021/10/10 08:22:41;;;;;;;35.20;22.85;;;16.40;59.00;;;;;;5050030;28;20078;-78
2021/10/10 08:25:11;;;;;;;35.10;21.67;;;15.90;60.20;;;;;;5059894;28;20028;-78
2021/10/10 08:27:41;;;;;;;28.67;20.52;;;15.50;60.70;;;;;;5049039;28;20704;-78
2021/10/10 08:30:09;;;;;;;30.83;21.45;;;15.10;61.20;;;;;;5050167;28;20009;-79
2021/10/10 08:32:37;;;;;;;27.92;18.67;;;14.80;61.70;;;;;;5055991;28;20027;-79
2021/10/10 08:35:04;;;;;;;27.05;18.20;;;14.70;62.10;;;;;;5042499;28;20403;-79
2021/10/10 08:37:30;;;;;;;26.38;17.23;;;14.60;61.90;;;;;;5043283;28;20029;-78
2021/10/10 08:39:56;;;;;;;19.08;13.68;;;14.50;62.00;;;;;;5042616;28;20021;-79
2021/10/10 08:42:30;;;;;;;19.15;13.35;;;14.50;61.90;;;;;;5048993;28;20044;-79
2021/10/10 08:45:04;;;;;;;20.52;12.10;;;14.50;62.00;;;;;;5049148;28;20116;-79
2021/10/10 08:47:32;;;;;;;17.63;11.23;;;14.50;62.10;;;;;;5044697;28;20467;-79
2021/10/10 08:49:59;;;;;;;15.45;10.43;;;14.50;62.00;;;;;;5053713;28;20079;-79
2021/10/10 08:52:24;;;;;;;16.80;11.23;;;14.50;61.70;;;;;;5049696;28;20371;-78
2021/10/10 08:54:51;;;;;;;16.75;11.85;;;14.50;61.80;;;;;;5046022;28;20033;-79
2021/10/10 08:57:17;;;;;;;13.07;11.15;;;14.50;61.80;;;;;;5048232;28;20028;-76
2021/10/10 08:59:48;;;;;;;17.08;11.05;;;14.60;61.70;;;;;;5045869;28;20100;-75
2021/10/10 09:02:21;;;;;;;15.55;10.43;;;14.70;61.50;;;;;;5055999;28;20106;-75
2021/10/10 09:04:47;;;;;;;14.63;9.77;;;14.80;61.50;;;;;;5042356;28;20112;-75
2021/10/10 09:07:13;;;;;;;17.52;11.02;;;14.80;61.10;;;;;;5040385;28;20480;-78
2021/10/10 09:09:41;;;;;;;13.27;10.40;;;14.90;61.10;;;;;;5035730;28;20025;-78
2021/10/10 09:12:11;;;;;;;14.85;10.70;;;15.00;60.70;;;;;;5044074;28;20017;-78
2021/10/10 09:14:48;;;;;;;13.60;9.70;;;15.10;60.10;;;;;;5043312;28;20044;-78
2021/10/10 09:17:20;;;;;;;15.95;10.77;;;15.30;59.30;;;;;;5044194;28;20036;-78
2021/10/10 09:19:51;;;;;;;14.18;9.95;;;15.50;59.10;;;;;;5045799;28;20120;-76
2021/10/10 09:22:17;;;;;;;20.80;10.23;;;15.70;59.00;;;;;;5052332;28;20025;-76
2021/10/10 09:24:43;;;;;;;14.23;10.05;;;15.70;58.80;;;;;;5048003;28;20028;-76
2021/10/10 09:27:14;;;;;;;14.57;10.13;;;15.70;58.50;;;;;;5039009;28;20073;-76
2021/10/10 09:29:43;;;;;;;11.65;9.50;;;15.70;58.30;;;;;;5038184;28;20035;-78
2021/10/10 09:32:16;;;;;;;12.57;10.55;;;15.60;58.20;;;;;;5045651;28;20028;-78
2021/10/10 09:34:42;;;;;;;13.27;9.45;;;15.50;58.40;;;;;;5048784;28;20034;-78
2021/10/10 09:37:37;;;;;;;10.68;8.85;;;15.60;58.90;;;;;;5050181;28;20044;-78
2021/10/10 09:42:44;;;;;;;12.57;9.02;;;15.70;58.80;;;;;;5047262;28;20391;-78
2021/10/10 09:45:27;;;;;;;11.13;8.70;;;15.90;58.60;;;;;;5047033;28;20029;-78
2021/10/10 09:47:56;;;;;;;13.88;8.90;;;16.00;58.20;;;;;;5049873;28;20029;-78
2021/10/10 09:50:30;;;;;;;12.98;8.60;;;16.10;58.20;;;;;;5041738;28;20021;-78
2021/10/10 09:53:06;;;;;;;10.60;7.93;;;16.20;57.80;;;;;;5047024;28;20388;-78
2021/10/10 09:55:34;;;;;;;12.48;7.47;;;16.30;57.50;;;;;;5044383;28;21026;-78
2021/10/10 09:58:01;;;;;;;14.30;8.60;;;16.40;56.80;;;;;;5046143;28;20029;-78
2021/10/10 10:00:29;;;;;;;15.25;8.82;;;16.50;56.20;;;;;;5039676;28;20029;-78
2021/10/10 10:03:10;;;;;;;10.10;7.70;;;16.50;55.80;;;;;;5046779;28;20037;-78
2021/10/10 10:05:38;;;;;;;13.80;8.23;;;16.60;55.30;;;;;;5045254;28;20051;-78
2021/10/10 10:08:05;;;;;;;9.07;6.45;;;16.60;55.30;;;;;;5045740;28;20075;-78
2021/10/10 10:10:33;;;;;;;13.88;6.95;;;16.70;54.90;;;;;;5041718;28;20020;-78
2021/10/10 10:13:01;;;;;;;11.15;7.25;;;16.80;54.50;;;;;;5038508;28;20021;-78
2021/10/10 10:15:29;;;;;;;10.35;7.75;;;16.90;54.40;;;;;;5036285;28;20021;-78
2021/10/10 10:17:56;;;;;;;11.02;7.70;;;16.90;53.20;;;;;;5044224;28;20039;-78
2021/10/10 10:20:23;;;;;;;10.43;7.45;;;16.70;52.80;;;;;;5042147;28;20048;-78
2021/10/10 10:22:54;;;;;;;10.68;8.02;;;16.80;52.90;;;;;;5040058;28;20033;-78
2021/10/10 10:25:21;;;;;;;12.88;8.80;;;16.80;53.10;;;;;;5047835;28;20472;-78
2021/10/10 10:27:49;;;;;;;14.32;10.07;;;16.90;52.90;;;;;;5051388;28;20060;-78
2021/10/10 10:30:20;;;;;;;14.25;9.60;;;17.00;52.30;;;;;;5049702;28;20025;-78
2021/10/10 10:32:46;;;;;;;30.30;18.15;;;16.90;52.00;;;;;;5047018;28;20029;-78
2021/10/10 10:35:18;;;;;;;15.13;8.35;;;16.90;52.10;;;;;;5030755;28;20029;-77
2021/10/10 10:37:44;;;;;;;46.40;25.65;;;17.00;51.30;;;;;;5035327;28;20021;-77
2021/10/10 10:40:18;;;;;;;76.78;40.88;;;17.00;51.40;;;;;;5047621;28;20025;-78
2021/10/10 10:42:49;;;;;;;42.55;23.83;;;17.10;51.40;;;;;;5039379;28;20140;-78
2021/10/10 10:45:22;;;;;;;73.72;39.25;;;17.20;51.10;;;;;;5050671;28;20037;-77
2021/10/10 10:47:49;;;;;;;56.60;29.95;;;17.30;51.10;;;;;;5048254;28;20040;-78
2021/10/10 10:50:31;;;;;;;125.53;65.13;;;17.30;51.10;;;;;;5048321;28;20428;-78
2021/10/10 10:53:05;;;;;;;52.10;26.25;;;17.30;51.30;;;;;;5042680;28;20021;-78
2021/10/10 10:55:35;;;;;;;57.10;31.52;;;17.40;51.20;;;;;;5050721;28;20029;-77
2021/10/10 10:58:11;;;;;;;54.53;29.83;;;17.50;50.80;;;;;;5053360;28;20025;-77
2021/10/10 11:00:43;;;;;;;9.25;6.55;;;17.60;50.60;;;;;;5049147;28;20017;-78
2021/10/10 11:03:26;;;;;;;8.10;6.70;;;17.60;49.20;;;;;;5048665;28;20033;-78
2021/10/10 11:05:52;;;;;;;20.85;13.35;;;17.40;48.30;;;;;;5049231;28;20040;-78
2021/10/10 11:08:25;;;;;;;19.77;12.65;;;17.40;49.00;;;;;;5052391;28;20048;-78
2021/10/10 11:11:03;;;;;;;18.38;12.98;;;17.30;48.60;;;;;;5049213;28;20047;-78
2021/10/10 11:13:37;;;;;;;52.40;32.78;;;17.20;49.30;;;;;;5044890;28;20729;-78
2021/10/10 11:16:06;;;;;;;87.35;55.10;;;17.40;49.80;;;;;;5059054;28;20401;-78
2021/10/10 11:18:34;;;;;;;10.02;7.10;;;17.40;49.80;;;;;;5048471;28;20035;-78
2021/10/10 11:21:05;;;;;;;190.60;92.97;;;17.50;49.00;;;;;;5051121;28;20394;-78
2021/10/10 11:23:32;;;;;;;42.17;18.67;;;17.40;49.50;;;;;;5041341;28;20049;-78
2021/10/10 11:26:02;;;;;;;144.88;73.60;;;17.50;49.00;;;;;;5044964;28;20487;-78
2021/10/10 11:28:44;;;;;;;30.30;18.45;;;17.60;49.40;;;;;;5052407;28;20041;-78
2021/10/10 11:31:21;;;;;;;78.47;41.45;;;17.70;49.00;;;;;;5049985;28;20032;-78
2021/10/10 11:34:11;;;;;;;43.58;21.70;;;17.80;49.20;;;;;;5046389;28;20108;-78
2021/10/10 11:36:41;;;;;;;45.45;25.70;;;17.80;49.10;;;;;;5046913;28;20029;-78
2021/10/10 11:39:13;;;;;;;30.23;16.67;;;17.80;49.40;;;;;;5046867;28;20484;-78
2021/10/10 11:41:51;;;;;;;31.73;18.23;;;17.90;49.10;;;;;;5048177;28;20555;-78
2021/10/10 11:44:25;;;;;;;22.15;11.40;;;17.90;49.20;;;;;;5049900;28;20047;-78
2021/10/10 11:46:53;;;;;;;25.90;13.85;;;17.80;49.00;;;;;;5048750;28;20040;-78
2021/10/10 11:49:42;;;;;;;17.30;11.68;;;17.90;49.30;;;;;;5048700;28;20029;-78
2021/10/10 11:52:22;;;;;;;12.65;8.90;;;18.00;49.10;;;;;;5055318;28;20029;-78
2021/10/10 11:55:43;;;;;;;13.40;8.77;;;18.00;48.70;;;;;;5052184;28;20032;-78
2021/10/10 11:57:40;;;;;;;15.25;9.43;;;18.10;48.60;;;;;;5048291;28;20094;-78
2021/10/10 12:00:14;;;;;;;16.35;10.05;;;18.00;48.60;;;;;;5047659;28;20513;-78
2021/10/10 12:02:45;;;;;;;10.90;6.20;;;18.10;48.50;;;;;;5044420;28;20029;-78
2021/10/10 12:05:14;;;;;;;9.68;5.50;;;18.00;47.60;;;;;;5048592;28;20037;-78
2021/10/10 12:07:41;;;;;;;6.93;5.18;;;18.00;47.40;;;;;;5049940;28;20043;-78
2021/10/10 12:10:10;;;;;;;10.13;7.18;;;18.00;46.40;;;;;;5049428;28;20471;-78
2021/10/10 12:12:36;;;;;;;8.20;6.45;;;17.90;45.90;;;;;;5048853;28;22383;-78
2021/10/10 12:15:03;;;;;;;10.35;6.80;;;17.90;46.40;;;;;;5047235;28;20009;-78
2021/10/10 12:17:47;;;;;;;8.48;6.20;;;18.00;46.40;;;;;;5052971;28;20725;-78
2021/10/10 12:20:15;;;;;;;11.30;8.00;;;18.00;46.40;;;;;;5055298;28;20025;-78
2021/10/10 12:22:53;;;;;;;14.05;9.60;;;17.90;46.10;;;;;;5049184;28;20107;-78
2021/10/10 12:25:32;;;;;;;12.32;8.23;;;17.90;46.90;;;;;;5050798;28;20020;-78
2021/10/10 12:28:13;;;;;;;10.43;8.45;;;18.00;47.60;;;;;;5048222;28;20053;-78
2021/10/10 12:30:40;;;;;;;12.57;8.60;;;18.00;47.30;;;;;;5048708;28;20025;-78
2021/10/10 12:33:26;;;;;;;16.15;8.75;;;18.00;47.60;;;;;;5044978;28;20033;-78
2021/10/10 12:36:15;;;;;;;14.02;8.05;;;17.90;47.70;;;;;;5048701;28;20051;-78
2021/10/10 12:38:43;;;;;;;8.68;6.10;;;17.90;47.60;;;;;;5034192;28;20033;-78
2021/10/10 12:41:27;;;;;;;10.43;6.85;;;17.90;47.30;;;;;;5051560;28;20485;-78
2021/10/10 12:44:05;;;;;;;11.18;7.60;;;17.70;46.90;;;;;;5042437;28;20112;-78
2021/10/10 12:46:50;;;;;;;11.57;7.68;;;17.80;47.30;;;;;;5046757;28;20029;-78
2021/10/10 12:49:37;;;;;;;10.73;8.02;;;17.90;47.40;;;;;;5045943;28;20108;-78
2021/10/10 12:52:03;;;;;;;15.32;9.02;;;17.80;47.60;;;;;;5053204;28;20526;-78